sensor_id;sensor_type;location;lat;lon;timestamp;P1;durP1;ratioP1;P2;durP2;ratioP2
11183;SDS011;5648;43.628;22.684;2022-07-24T00:00:48;4.72;;;3.67;;
11183;SDS011;5648;43.628;22.684;2022-07-24T00:03:13;9.00;;;4.35;;
11183;SDS011;5648;43.628;22.684;2022-07-24T00:05:39;8.65;;;4.55;;
11183;SDS011;5648;43.628;22.684;2022-07-24T00:08:04;8.75;;;4.00;;
11183;SDS011;5648;43.628;22.684;2022-07-24T00:10:30;4.53;;;3.63;;
11183;SDS011;5648;43.628;22.684;2022-07-24T00:12:56;4.25;;;3.85;;
11183;SDS011;5648;43.628;22.684;2022-07-24T00:15:22;4.30;;;3.90;;
11183;SDS011;5648;43.628;22.684;2022-07-24T00:17:47;4.22;;;3.83;;
11183;SDS011;5648;43.628;22.684;2022-07-24T00:20:13;4.47;;;3.60;;
11183;SDS011;5648;43.628;22.684;2022-07-24T00:22:38;5.35;;;4.10;;
11183;SDS011;5648;43.628;22.684;2022-07-24T00:25:04;4.38;;;3.70;;
11183;SDS011;5648;43.628;22.684;2022-07-24T00:27:29;4.47;;;3.40;;
11183;SDS011;5648;43.628;22.684;2022-07-24T00:29:55;5.25;;;3.92;;
11183;SDS011;5648;43.628;22.684;2022-07-24T00:32:21;5.53;;;3.70;;
11183;SDS011;5648;43.628;22.684;2022-07-24T00:34:46;5.78;;;4.18;;
11183;SDS011;5648;43.628;22.684;2022-07-24T00:37:12;10.40;;;4.20;;
11183;SDS011;5648;43.628;22.684;2022-07-24T00:39:37;6.40;;;3.67;;
11183;SDS011;5648;43.628;22.684;2022-07-24T00:42:03;5.85;;;4.05;;
11183;SDS011;5648;43.628;22.684;2022-07-24T00:44:29;5.20;;;3.97;;
11183;SDS011;5648;43.628;22.684;2022-07-24T00:46:54;6.22;;;3.67;;
11183;SDS011;5648;43.628;22.684;2022-07-24T00:49:20;4.18;;;3.78;;
11183;SDS011;5648;43.628;22.684;2022-07-24T00:51:46;4.40;;;3.95;;
11183;SDS011;5648;43.628;22.684;2022-07-24T00:54:14;4.18;;;3.78;;
11183;SDS011;5648;43.628;22.684;2022-07-24T00:56:42;4.47;;;3.53;;
11183;SDS011;5648;43.628;22.684;2022-07-24T00:59:09;6.50;;;3.67;;
11183;SDS011;5648;43.628;22.684;2022-07-24T01:01:34;5.10;;;3.88;;
11183;SDS011;5648;43.628;22.684;2022-07-24T01:04:00;5.85;;;3.88;;
11183;SDS011;5648;43.628;22.684;2022-07-24T01:06:26;6.88;;;3.55;;
11183;SDS011;5648;43.628;22.684;2022-07-24T01:08:52;4.55;;;4.00;;
11183;SDS011;5648;43.628;22.684;2022-07-24T01:11:19;4.22;;;3.60;;
11183;SDS011;5648;43.628;22.684;2022-07-24T01:13:46;4.40;;;4.00;;
11183;SDS011;5648;43.628;22.684;2022-07-24T01:16:12;4.53;;;3.60;;
11183;SDS011;5648;43.628;22.684;2022-07-24T01:18:38;5.65;;;4.00;;
11183;SDS011;5648;43.628;22.684;2022-07-24T01:21:05;5.22;;;4.45;;
11183;SDS011;5648;43.628;22.684;2022-07-24T01:23:31;4.25;;;3.85;;
11183;SDS011;5648;43.628;22.684;2022-07-24T01:25:57;4.18;;;3.78;;
11183;SDS011;5648;43.628;22.684;2022-07-24T01:28:23;7.45;;;4.22;;
11183;SDS011;5648;43.628;22.684;2022-07-24T01:30:48;6.07;;;3.90;;
11183;SDS011;5648;43.628;22.684;2022-07-24T01:33:14;5.00;;;3.92;;
11183;SDS011;5648;43.628;22.684;2022-07-24T01:35:40;5.50;;;4.00;;
11183;SDS011;5648;43.628;22.684;2022-07-24T01:38:07;5.25;;;3.92;;
11183;SDS011;5648;43.628;22.684;2022-07-24T01:40:32;7.68;;;3.67;;
11183;SDS011;5648;43.628;22.684;2022-07-24T01:42:58;4.80;;;4.00;;
11183;SDS011;5648;43.628;22.684;2022-07-24T01:45:24;6.10;;;4.05;;
11183;SDS011;5648;43.628;22.684;2022-07-24T01:47:49;6.93;;;3.85;;
11183;SDS011;5648;43.628;22.684;2022-07-24T01:50:15;4.15;;;3.75;;
11183;SDS011;5648;43.628;22.684;2022-07-24T01:52:41;4.47;;;4.07;;
11183;SDS011;5648;43.628;22.684;2022-07-24T01:55:07;6.05;;;3.78;;
11183;SDS011;5648;43.628;22.684;2022-07-24T01:57:33;5.13;;;4.00;;
11183;SDS011;5648;43.628;22.684;2022-07-24T02:00:00;9.82;;;4.50;;
11183;SDS011;5648;43.628;22.684;2022-07-24T02:02:26;9.82;;;4.28;;
11183;SDS011;5648;43.628;22.684;2022-07-24T02:04:53;5.07;;;4.57;;
11183;SDS011;5648;43.628;22.684;2022-07-24T02:07:18;4.97;;;4.03;;
11183;SDS011;5648;43.628;22.684;2022-07-24T02:09:44;6.07;;;3.75;;
11183;SDS011;5648;43.628;22.684;2022-07-24T02:12:10;7.18;;;4.00;;
11183;SDS011;5648;43.628;22.684;2022-07-24T02:14:36;5.30;;;4.15;;
11183;SDS011;5648;43.628;22.684;2022-07-24T02:17:01;6.25;;;4.03;;
11183;SDS011;5648;43.628;22.684;2022-07-24T02:19:27;7.95;;;4.00;;
11183;SDS011;5648;43.628;22.684;2022-07-24T02:21:53;4.00;;;3.70;;
11183;SDS011;5648;43.628;22.684;2022-07-24T02:24:19;4.25;;;3.85;;
11183;SDS011;5648;43.628;22.684;2022-07-24T02:26:45;4.90;;;3.85;;
11183;SDS011;5648;43.628;22.684;2022-07-24T02:29:10;4.30;;;3.90;;
11183;SDS011;5648;43.628;22.684;2022-07-24T02:31:36;6.70;;;4.35;;
11183;SDS011;5648;43.628;22.684;2022-07-24T02:34:01;9.32;;;4.63;;
11183;SDS011;5648;43.628;22.684;2022-07-24T02:36:27;9.45;;;4.45;;
11183;SDS011;5648;43.628;22.684;2022-07-24T02:38:52;5.22;;;4.00;;
11183;SDS011;5648;43.628;22.684;2022-07-24T02:41:18;6.18;;;3.67;;
11183;SDS011;5648;43.628;22.684;2022-07-24T02:43:44;5.90;;;4.07;;
11183;SDS011;5648;43.628;22.684;2022-07-24T02:46:11;5.68;;;3.70;;
11183;SDS011;5648;43.628;22.684;2022-07-24T02:48:36;5.40;;;4.35;;
11183;SDS011;5648;43.628;22.684;2022-07-24T02:51:02;3.85;;;3.45;;
11183;SDS011;5648;43.628;22.684;2022-07-24T02:53:28;6.93;;;4.00;;
11183;SDS011;5648;43.628;22.684;2022-07-24T02:55:53;6.63;;;3.55;;
11183;SDS011;5648;43.628;22.684;2022-07-24T02:58:19;4.38;;;3.45;;
11183;SDS011;5648;43.628;22.684;2022-07-24T03:00:44;4.18;;;3.35;;
11183;SDS011;5648;43.628;22.684;2022-07-24T03:03:10;7.22;;;3.83;;
11183;SDS011;5648;43.628;22.684;2022-07-24T03:05:35;8.15;;;3.83;;
11183;SDS011;5648;43.628;22.684;2022-07-24T03:08:01;5.25;;;3.85;;
11183;SDS011;5648;43.628;22.684;2022-07-24T03:10:27;7.40;;;4.10;;
11183;SDS011;5648;43.628;22.684;2022-07-24T03:12:52;5.63;;;3.72;;
11183;SDS011;5648;43.628;22.684;2022-07-24T03:15:18;5.65;;;4.20;;
11183;SDS011;5648;43.628;22.684;2022-07-24T03:17:53;7.28;;;3.65;;
11183;SDS011;5648;43.628;22.684;2022-07-24T03:20:21;6.65;;;3.92;;
11183;SDS011;5648;43.628;22.684;2022-07-24T03:22:49;5.28;;;3.80;;
11183;SDS011;5648;43.628;22.684;2022-07-24T03:25:15;5.82;;;3.45;;
11183;SDS011;5648;43.628;22.684;2022-07-24T03:27:41;5.10;;;3.97;;
11183;SDS011;5648;43.628;22.684;2022-07-24T03:30:07;6.43;;;3.72;;
11183;SDS011;5648;43.628;22.684;2022-07-24T03:32:33;8.20;;;3.85;;
11183;SDS011;5648;43.628;22.684;2022-07-24T03:34:59;8.95;;;3.65;;
11183;SDS011;5648;43.628;22.684;2022-07-24T03:37:24;8.85;;;3.90;;
11183;SDS011;5648;43.628;22.684;2022-07-24T03:39:50;9.68;;;3.85;;
11183;SDS011;5648;43.628;22.684;2022-07-24T03:45:07;11.10;;;4.03;;
11183;SDS011;5648;43.628;22.684;2022-07-24T03:47:33;11.13;;;3.95;;
11183;SDS011;5648;43.628;22.684;2022-07-24T03:49:58;10.02;;;4.45;;
11183;SDS011;5648;43.628;22.684;2022-07-24T03:52:24;6.68;;;4.22;;
11183;SDS011;5648;43.628;22.684;2022-07-24T03:54:49;12.40;;;4.55;;
11183;SDS011;5648;43.628;22.684;2022-07-24T03:57:15;8.88;;;3.95;;
11183;SDS011;5648;43.628;22.684;2022-07-24T03:59:40;9.65;;;4.05;;
11183;SDS011;5648;43.628;22.684;2022-07-24T04:02:06;4.60;;;3.67;;
11183;SDS011;5648;43.628;22.684;2022-07-24T04:04:32;5.70;;;3.78;;
11183;SDS011;5648;43.628;22.684;2022-07-24T04:06:58;6.07;;;3.72;;
11183;SDS011;5648;43.628;22.684;2022-07-24T04:09:23;8.88;;;4.57;;
11183;SDS011;5648;43.628;22.684;2022-07-24T04:11:49;10.38;;;4.00;;
11183;SDS011;5648;43.628;22.684;2022-07-24T04:14:14;9.65;;;4.07;;
11183;SDS011;5648;43.628;22.684;2022-07-24T04:16:39;11.70;;;4.60;;
11183;SDS011;5648;43.628;22.684;2022-07-24T04:19:05;8.95;;;4.22;;
11183;SDS011;5648;43.628;22.684;2022-07-24T04:21:30;10.63;;;4.10;;
11183;SDS011;5648;43.628;22.684;2022-07-24T04:23:56;9.63;;;4.40;;
11183;SDS011;5648;43.628;22.684;2022-07-24T04:26:21;12.23;;;4.20;;
11183;SDS011;5648;43.628;22.684;2022-07-24T04:28:47;9.65;;;3.90;;
11183;SDS011;5648;43.628;22.684;2022-07-24T04:31:12;9.43;;;4.20;;
11183;SDS011;5648;43.628;22.684;2022-07-24T04:33:38;7.25;;;3.30;;
11183;SDS011;5648;43.628;22.684;2022-07-24T04:36:04;7.55;;;3.80;;
11183;SDS011;5648;43.628;22.684;2022-07-24T04:38:31;8.27;;;4.30;;
11183;SDS011;5648;43.628;22.684;2022-07-24T04:40:58;9.10;;;3.25;;
11183;SDS011;5648;43.628;22.684;2022-07-24T04:43:23;8.57;;;4.13;;
11183;SDS011;5648;43.628;22.684;2022-07-24T04:45:49;12.40;;;4.50;;
11183;SDS011;5648;43.628;22.684;2022-07-24T04:48:14;9.75;;;3.90;;
11183;SDS011;5648;43.628;22.684;2022-07-24T04:50:40;8.23;;;3.83;;
11183;SDS011;5648;43.628;22.684;2022-07-24T04:53:05;8.00;;;4.00;;
11183;SDS011;5648;43.628;22.684;2022-07-24T04:55:31;11.27;;;4.70;;
11183;SDS011;5648;43.628;22.684;2022-07-24T04:57:56;10.27;;;4.82;;
11183;SDS011;5648;43.628;22.684;2022-07-24T05:00:22;10.07;;;4.40;;
11183;SDS011;5648;43.628;22.684;2022-07-24T05:02:47;8.10;;;4.43;;
11183;SDS011;5648;43.628;22.684;2022-07-24T05:05:13;6.70;;;3.88;;
11183;SDS011;5648;43.628;22.684;2022-07-24T05:07:38;11.93;;;3.75;;
11183;SDS011;5648;43.628;22.684;2022-07-24T05:10:04;8.82;;;4.20;;
11183;SDS011;5648;43.628;22.684;2022-07-24T05:12:30;8.27;;;4.10;;
11183;SDS011;5648;43.628;22.684;2022-07-24T05:14:56;8.27;;;4.15;;
11183;SDS011;5648;43.628;22.684;2022-07-24T05:17:22;5.55;;;4.00;;
11183;SDS011;5648;43.628;22.684;2022-07-24T05:19:48;9.43;;;3.92;;
11183;SDS011;5648;43.628;22.684;2022-07-24T05:22:13;13.50;;;3.90;;
11183;SDS011;5648;43.628;22.684;2022-07-24T05:24:39;8.50;;;4.43;;
11183;SDS011;5648;43.628;22.684;2022-07-24T05:27:04;8.70;;;4.20;;
11183;SDS011;5648;43.628;22.684;2022-07-24T05:29:30;7.30;;;3.80;;
11183;SDS011;5648;43.628;22.684;2022-07-24T05:31:55;9.00;;;4.30;;
11183;SDS011;5648;43.628;22.684;2022-07-24T05:34:21;4.07;;;3.42;;
11183;SDS011;5648;43.628;22.684;2022-07-24T05:36:47;13.43;;;4.95;;
11183;SDS011;5648;43.628;22.684;2022-07-24T05:39:12;11.02;;;3.67;;
11183;SDS011;5648;43.628;22.684;2022-07-24T05:41:38;7.88;;;5.05;;
11183;SDS011;5648;43.628;22.684;2022-07-24T05:44:04;8.43;;;4.63;;
11183;SDS011;5648;43.628;22.684;2022-07-24T05:46:30;5.63;;;4.05;;
11183;SDS011;5648;43.628;22.684;2022-07-24T05:48:55;10.55;;;3.95;;
11183;SDS011;5648;43.628;22.684;2022-07-24T05:51:21;9.20;;;4.25;;
11183;SDS011;5648;43.628;22.684;2022-07-24T05:53:46;6.90;;;4.10;;
11183;SDS011;5648;43.628;22.684;2022-07-24T05:56:12;12.35;;;4.32;;
11183;SDS011;5648;43.628;22.684;2022-07-24T05:58:38;6.53;;;3.83;;
11183;SDS011;5648;43.628;22.684;2022-07-24T06:01:04;15.00;;;4.63;;
11183;SDS011;5648;43.628;22.684;2022-07-24T06:03:29;9.68;;;4.15;;
11183;SDS011;5648;43.628;22.684;2022-07-24T06:05:55;11.30;;;4.22;;
11183;SDS011;5648;43.628;22.684;2022-07-24T06:08:21;9.93;;;3.92;;
11183;SDS011;5648;43.628;22.684;2022-07-24T06:10:46;9.10;;;4.50;;
11183;SDS011;5648;43.628;22.684;2022-07-24T06:13:11;8.23;;;4.40;;
11183;SDS011;5648;43.628;22.684;2022-07-24T06:15:37;6.85;;;4.07;;
11183;SDS011;5648;43.628;22.684;2022-07-24T06:18:03;8.40;;;3.80;;
11183;SDS011;5648;43.628;22.684;2022-07-24T06:20:28;38.92;;;6.40;;
11183;SDS011;5648;43.628;22.684;2022-07-24T06:22:54;11.55;;;4.00;;
11183;SDS011;5648;43.628;22.684;2022-07-24T06:25:19;13.07;;;4.30;;
11183;SDS011;5648;43.628;22.684;2022-07-24T06:27:46;10.43;;;5.22;;
11183;SDS011;5648;43.628;22.684;2022-07-24T06:30:14;15.88;;;6.55;;
11183;SDS011;5648;43.628;22.684;2022-07-24T06:32:41;6.55;;;3.72;;
11183;SDS011;5648;43.628;22.684;2022-07-24T06:35:07;6.47;;;3.40;;
11183;SDS011;5648;43.628;22.684;2022-07-24T06:37:32;6.97;;;3.80;;
11183;SDS011;5648;43.628;22.684;2022-07-24T06:39:58;11.35;;;4.00;;
11183;SDS011;5648;43.628;22.684;2022-07-24T06:42:23;11.95;;;4.25;;
11183;SDS011;5648;43.628;22.684;2022-07-24T06:44:49;12.32;;;4.40;;
11183;SDS011;5648;43.628;22.684;2022-07-24T06:47:14;13.13;;;4.65;;
11183;SDS011;5648;43.628;22.684;2022-07-24T06:49:40;10.73;;;4.45;;
11183;SDS011;5648;43.628;22.684;2022-07-24T06:52:05;7.13;;;4.22;;
11183;SDS011;5648;43.628;22.684;2022-07-24T06:54:31;11.98;;;4.97;;
11183;SDS011;5648;43.628;22.684;2022-07-24T06:56:56;6.70;;;4.22;;
11183;SDS011;5648;43.628;22.684;2022-07-24T06:59:22;6.82;;;4.35;;
11183;SDS011;5648;43.628;22.684;2022-07-24T07:01:47;5.93;;;4.18;;
11183;SDS011;5648;43.628;22.684;2022-07-24T07:04:13;9.93;;;4.93;;
11183;SDS011;5648;43.628;22.684;2022-07-24T07:06:38;7.60;;;4.78;;
11183;SDS011;5648;43.628;22.684;2022-07-24T07:09:03;10.02;;;4.78;;
11183;SDS011;5648;43.628;22.684;2022-07-24T07:11:29;9.32;;;3.97;;
11183;SDS011;5648;43.628;22.684;2022-07-24T07:13:54;4.85;;;3.90;;
11183;SDS011;5648;43.628;22.684;2022-07-24T07:16:20;7.30;;;4.00;;
11183;SDS011;5648;43.628;22.684;2022-07-24T07:18:45;8.98;;;3.78;;
11183;SDS011;5648;43.628;22.684;2022-07-24T07:21:11;6.25;;;3.75;;
11183;SDS011;5648;43.628;22.684;2022-07-24T07:23:36;7.32;;;3.72;;
11183;SDS011;5648;43.628;22.684;2022-07-24T07:26:02;4.18;;;3.78;;
11183;SDS011;5648;43.628;22.684;2022-07-24T07:28:27;5.82;;;3.67;;
11183;SDS011;5648;43.628;22.684;2022-07-24T07:30:54;6.03;;;3.72;;
11183;SDS011;5648;43.628;22.684;2022-07-24T07:33:20;6.90;;;3.92;;
11183;SDS011;5648;43.628;22.684;2022-07-24T07:35:45;8.95;;;3.75;;
11183;SDS011;5648;43.628;22.684;2022-07-24T07:38:11;8.13;;;4.03;;
11183;SDS011;5648;43.628;22.684;2022-07-24T07:40:36;4.85;;;3.70;;
11183;SDS011;5648;43.628;22.684;2022-07-24T07:43:02;5.35;;;3.72;;
11183;SDS011;5648;43.628;22.684;2022-07-24T07:45:28;7.03;;;4.10;;
11183;SDS011;5648;43.628;22.684;2022-07-24T07:47:53;7.68;;;3.95;;
11183;SDS011;5648;43.628;22.684;2022-07-24T07:50:19;5.18;;;3.35;;
11183;SDS011;5648;43.628;22.684;2022-07-24T07:52:44;6.50;;;3.92;;
11183;SDS011;5648;43.628;22.684;2022-07-24T07:55:10;5.88;;;3.97;;
11183;SDS011;5648;43.628;22.684;2022-07-24T07:57:36;7.10;;;3.28;;
11183;SDS011;5648;43.628;22.684;2022-07-24T08:00:02;8.98;;;3.80;;
11183;SDS011;5648;43.628;22.684;2022-07-24T08:02:28;6.82;;;4.00;;
11183;SDS011;5648;43.628;22.684;2022-07-24T08:04:54;6.55;;;4.00;;
11183;SDS011;5648;43.628;22.684;2022-07-24T08:07:20;5.35;;;3.90;;
11183;SDS011;5648;43.628;22.684;2022-07-24T08:09:45;8.80;;;3.88;;
11183;SDS011;5648;43.628;22.684;2022-07-24T08:12:11;5.90;;;3.80;;
11183;SDS011;5648;43.628;22.684;2022-07-24T08:14:36;14.18;;;12.85;;
11183;SDS011;5648;43.628;22.684;2022-07-24T08:17:02;5.80;;;4.38;;
11183;SDS011;5648;43.628;22.684;2022-07-24T08:19:28;6.28;;;3.55;;
11183;SDS011;5648;43.628;22.684;2022-07-24T08:21:53;9.23;;;3.90;;
11183;SDS011;5648;43.628;22.684;2022-07-24T08:24:19;7.05;;;4.10;;
11183;SDS011;5648;43.628;22.684;2022-07-24T08:26:48;5.07;;;4.22;;
11183;SDS011;5648;43.628;22.684;2022-07-24T08:29:13;7.70;;;3.97;;
11183;SDS011;5648;43.628;22.684;2022-07-24T08:31:39;8.52;;;4.45;;
11183;SDS011;5648;43.628;22.684;2022-07-24T08:34:04;6.35;;;3.58;;
11183;SDS011;5648;43.628;22.684;2022-07-24T08:36:30;4.70;;;3.85;;
11183;SDS011;5648;43.628;22.684;2022-07-24T08:38:56;6.68;;;3.92;;
11183;SDS011;5648;43.628;22.684;2022-07-24T08:41:21;6.15;;;3.90;;
11183;SDS011;5648;43.628;22.684;2022-07-24T08:43:47;5.43;;;3.83;;
11183;SDS011;5648;43.628;22.684;2022-07-24T08:46:12;12.20;;;4.80;;
11183;SDS011;5648;43.628;22.684;2022-07-24T08:48:43;5.28;;;3.88;;
11183;SDS011;5648;43.628;22.684;2022-07-24T08:51:09;8.90;;;4.90;;
11183;SDS011;5648;43.628;22.684;2022-07-24T08:53:38;5.57;;;4.20;;
11183;SDS011;5648;43.628;22.684;2022-07-24T08:56:05;5.13;;;4.07;;
11183;SDS011;5648;43.628;22.684;2022-07-24T08:58:31;4.40;;;3.47;;
11183;SDS011;5648;43.628;22.684;2022-07-24T09:01:01;7.43;;;4.50;;
11183;SDS011;5648;43.628;22.684;2022-07-24T09:03:26;5.00;;;4.07;;
11183;SDS011;5648;43.628;22.684;2022-07-24T09:05:52;7.03;;;4.38;;
11183;SDS011;5648;43.628;22.684;2022-07-24T09:08:20;9.73;;;4.57;;
11183;SDS011;5648;43.628;22.684;2022-07-24T09:10:58;4.97;;;4.15;;
11183;SDS011;5648;43.628;22.684;2022-07-24T09:13:26;7.72;;;4.25;;
11183;SDS011;5648;43.628;22.684;2022-07-24T09:15:54;5.93;;;4.05;;
11183;SDS011;5648;43.628;22.684;2022-07-24T09:18:41;5.80;;;4.53;;
11183;SDS011;5648;43.628;22.684;2022-07-24T09:21:13;8.80;;;5.10;;
11183;SDS011;5648;43.628;22.684;2022-07-24T09:23:40;6.80;;;4.20;;
11183;SDS011;5648;43.628;22.684;2022-07-24T09:26:08;10.50;;;4.70;;
11183;SDS011;5648;43.628;22.684;2022-07-24T09:28:51;4.80;;;4.10;;
11183;SDS011;5648;43.628;22.684;2022-07-24T09:31:18;10.60;;;5.70;;
11183;SDS011;5648;43.628;22.684;2022-07-24T09:33:46;9.65;;;6.10;;
11183;SDS011;5648;43.628;22.684;2022-07-24T09:36:13;7.13;;;4.70;;
11183;SDS011;5648;43.628;22.684;2022-07-24T09:38:46;5.88;;;4.78;;
11183;SDS011;5648;43.628;22.684;2022-07-24T09:41:19;7.40;;;4.88;;
11183;SDS011;5648;43.628;22.684;2022-07-24T09:43:46;9.68;;;5.60;;
11183;SDS011;5648;43.628;22.684;2022-07-24T09:46:23;4.57;;;4.20;;
11183;SDS011;5648;43.628;22.684;2022-07-24T09:51:19;4.78;;;4.38;;
11183;SDS011;5648;43.628;22.684;2022-07-24T09:53:46;7.22;;;4.97;;
11183;SDS011;5648;43.628;22.684;2022-07-24T09:56:17;8.77;;;4.72;;
11183;SDS011;5648;43.628;22.684;2022-07-24T10:01:14;6.05;;;4.80;;
11183;SDS011;5648;43.628;22.684;2022-07-24T10:03:42;4.93;;;4.43;;
11183;SDS011;5648;43.628;22.684;2022-07-24T10:06:10;11.35;;;4.68;;
11183;SDS011;5648;43.628;22.684;2022-07-24T10:08:43;5.30;;;4.80;;
11183;SDS011;5648;43.628;22.684;2022-07-24T10:11:10;7.90;;;4.80;;
11183;SDS011;5648;43.628;22.684;2022-07-24T10:13:37;7.18;;;6.10;;
11183;SDS011;5648;43.628;22.684;2022-07-24T10:18:46;6.95;;;5.72;;
11183;SDS011;5648;43.628;22.684;2022-07-24T10:21:16;6.65;;;4.95;;
11183;SDS011;5648;43.628;22.684;2022-07-24T10:26:47;6.90;;;5.80;;
11183;SDS011;5648;43.628;22.684;2022-07-24T10:29:21;5.45;;;4.95;;
11183;SDS011;5648;43.628;22.684;2022-07-24T10:31:55;9.43;;;5.72;;
11183;SDS011;5648;43.628;22.684;2022-07-24T10:39:49;8.15;;;5.53;;
11183;SDS011;5648;43.628;22.684;2022-07-24T10:53:26;7.40;;;4.82;;
11183;SDS011;5648;43.628;22.684;2022-07-24T11:01:44;4.90;;;4.50;;
11183;SDS011;5648;43.628;22.684;2022-07-24T11:06:44;6.70;;;5.88;;
11183;SDS011;5648;43.628;22.684;2022-07-24T11:09:11;7.75;;;6.10;;
11183;SDS011;5648;43.628;22.684;2022-07-24T11:14:25;15.65;;;5.88;;
11183;SDS011;5648;43.628;22.684;2022-07-24T11:20:05;6.18;;;5.68;;
11183;SDS011;5648;43.628;22.684;2022-07-24T11:22:48;5.97;;;5.47;;
11183;SDS011;5648;43.628;22.684;2022-07-24T11:27:58;7.93;;;6.18;;
11183;SDS011;5648;43.628;22.684;2022-07-24T11:30:44;16.70;;;6.22;;
11183;SDS011;5648;43.628;22.684;2022-07-24T11:33:11;6.93;;;5.63;;
11183;SDS011;5648;43.628;22.684;2022-07-24T11:35:37;12.63;;;6.25;;
11183;SDS011;5648;43.628;22.684;2022-07-24T11:38:04;14.30;;;7.13;;
11183;SDS011;5648;43.628;22.684;2022-07-24T11:40:32;7.63;;;6.88;;
11183;SDS011;5648;43.628;22.684;2022-07-24T11:43:03;7.47;;;6.20;;
11183;SDS011;5648;43.628;22.684;2022-07-24T11:45:30;6.68;;;5.53;;
11183;SDS011;5648;43.628;22.684;2022-07-24T11:47:56;6.68;;;6.03;;
11183;SDS011;5648;43.628;22.684;2022-07-24T11:50:23;8.63;;;6.50;;
11183;SDS011;5648;43.628;22.684;2022-07-24T11:52:51;7.80;;;6.22;;
11183;SDS011;5648;43.628;22.684;2022-07-24T11:55:17;7.95;;;6.43;;
11183;SDS011;5648;43.628;22.684;2022-07-24T11:57:47;7.13;;;6.47;;
11183;SDS011;5648;43.628;22.684;2022-07-24T12:00:16;9.18;;;6.57;;
11183;SDS011;5648;43.628;22.684;2022-07-24T12:05:10;8.23;;;6.15;;
11183;SDS011;5648;43.628;22.684;2022-07-24T12:07:36;7.93;;;5.93;;
11183;SDS011;5648;43.628;22.684;2022-07-24T12:10:02;10.82;;;6.30;;
11183;SDS011;5648;43.628;22.684;2022-07-24T12:15:14;13.13;;;8.40;;
11183;SDS011;5648;43.628;22.684;2022-07-24T12:20:28;15.57;;;7.75;;
11183;SDS011;5648;43.628;22.684;2022-07-24T12:23:02;11.70;;;7.13;;
11183;SDS011;5648;43.628;22.684;2022-07-24T12:25:30;10.05;;;8.32;;
11183;SDS011;5648;43.628;22.684;2022-07-24T12:30:30;12.30;;;7.30;;
11183;SDS011;5648;43.628;22.684;2022-07-24T12:33:04;9.77;;;7.13;;
11183;SDS011;5648;43.628;22.684;2022-07-24T12:35:33;10.30;;;6.90;;
11183;SDS011;5648;43.628;22.684;2022-07-24T12:38:22;12.98;;;7.57;;
11183;SDS011;5648;43.628;22.684;2022-07-24T12:41:00;14.95;;;10.30;;
11183;SDS011;5648;43.628;22.684;2022-07-24T12:43:33;11.95;;;9.60;;
11183;SDS011;5648;43.628;22.684;2022-07-24T12:46:13;10.48;;;7.07;;
11183;SDS011;5648;43.628;22.684;2022-07-24T12:48:38;8.25;;;6.93;;
11183;SDS011;5648;43.628;22.684;2022-07-24T12:53:32;10.38;;;7.20;;
11183;SDS011;5648;43.628;22.684;2022-07-24T12:56:17;8.05;;;6.95;;
11183;SDS011;5648;43.628;22.684;2022-07-24T13:01:27;12.32;;;7.15;;
11183;SDS011;5648;43.628;22.684;2022-07-24T13:04:08;9.65;;;8.13;;
11183;SDS011;5648;43.628;22.684;2022-07-24T13:06:44;9.15;;;6.63;;
11183;SDS011;5648;43.628;22.684;2022-07-24T13:09:12;8.75;;;6.80;;
11183;SDS011;5648;43.628;22.684;2022-07-24T13:11:38;8.23;;;6.38;;
11183;SDS011;5648;43.628;22.684;2022-07-24T13:14:06;7.80;;;7.03;;
11183;SDS011;5648;43.628;22.684;2022-07-24T13:16:33;8.63;;;6.75;;
11183;SDS011;5648;43.628;22.684;2022-07-24T13:19:02;8.05;;;7.30;;
11183;SDS011;5648;43.628;22.684;2022-07-24T13:21:27;10.75;;;7.85;;
11183;SDS011;5648;43.628;22.684;2022-07-24T13:23:54;11.20;;;7.70;;
11183;SDS011;5648;43.628;22.684;2022-07-24T13:26:20;10.25;;;8.38;;
11183;SDS011;5648;43.628;22.684;2022-07-24T13:28:46;7.80;;;7.10;;
11183;SDS011;5648;43.628;22.684;2022-07-24T13:31:12;9.07;;;7.57;;
11183;SDS011;5648;43.628;22.684;2022-07-24T13:33:38;12.15;;;7.53;;
11183;SDS011;5648;43.628;22.684;2022-07-24T13:36:04;10.40;;;8.30;;
11183;SDS011;5648;43.628;22.684;2022-07-24T13:38:30;10.07;;;7.97;;
11183;SDS011;5648;43.628;22.684;2022-07-24T13:40:55;12.10;;;7.85;;
11183;SDS011;5648;43.628;22.684;2022-07-24T13:43:21;10.75;;;8.20;;
11183;SDS011;5648;43.628;22.684;2022-07-24T13:45:46;7.57;;;6.95;;
11183;SDS011;5648;43.628;22.684;2022-07-24T13:48:12;10.07;;;7.68;;
11183;SDS011;5648;43.628;22.684;2022-07-24T13:50:38;11.25;;;7.03;;
11183;SDS011;5648;43.628;22.684;2022-07-24T13:53:03;8.15;;;7.35;;
11183;SDS011;5648;43.628;22.684;2022-07-24T13:55:30;8.43;;;7.63;;
11183;SDS011;5648;43.628;22.684;2022-07-24T13:57:56;13.10;;;7.15;;
11183;SDS011;5648;43.628;22.684;2022-07-24T14:00:22;12.18;;;6.30;;
11183;SDS011;5648;43.628;22.684;2022-07-24T14:02:49;7.75;;;6.03;;
11183;SDS011;5648;43.628;22.684;2022-07-24T14:05:14;13.65;;;5.78;;
11183;SDS011;5648;43.628;22.684;2022-07-24T14:07:41;12.05;;;6.75;;
11183;SDS011;5648;43.628;22.684;2022-07-24T14:10:07;10.80;;;6.88;;
11183;SDS011;5648;43.628;22.684;2022-07-24T14:12:32;16.88;;;6.25;;
11183;SDS011;5648;43.628;22.684;2022-07-24T14:14:58;12.80;;;5.90;;
11183;SDS011;5648;43.628;22.684;2022-07-24T14:17:23;6.32;;;5.70;;
11183;SDS011;5648;43.628;22.684;2022-07-24T14:19:49;7.45;;;5.60;;
11183;SDS011;5648;43.628;22.684;2022-07-24T14:22:14;9.65;;;5.72;;
11183;SDS011;5648;43.628;22.684;2022-07-24T14:24:40;9.52;;;6.90;;
11183;SDS011;5648;43.628;22.684;2022-07-24T14:27:05;8.40;;;6.13;;
11183;SDS011;5648;43.628;22.684;2022-07-24T14:29:31;6.22;;;5.63;;
11183;SDS011;5648;43.628;22.684;2022-07-24T14:31:56;8.63;;;5.70;;
11183;SDS011;5648;43.628;22.684;2022-07-24T14:34:22;8.07;;;5.82;;
11183;SDS011;5648;43.628;22.684;2022-07-24T14:36:51;7.85;;;5.63;;
11183;SDS011;5648;43.628;22.684;2022-07-24T14:39:16;8.18;;;6.28;;
11183;SDS011;5648;43.628;22.684;2022-07-24T14:41:44;5.63;;;5.18;;
11183;SDS011;5648;43.628;22.684;2022-07-24T14:44:09;7.47;;;5.63;;
11183;SDS011;5648;43.628;22.684;2022-07-24T14:46:35;6.32;;;5.72;;
11183;SDS011;5648;43.628;22.684;2022-07-24T14:49:00;6.85;;;5.72;;
11183;SDS011;5648;43.628;22.684;2022-07-24T14:51:26;6.28;;;5.68;;
11183;SDS011;5648;43.628;22.684;2022-07-24T14:53:51;7.35;;;6.28;;
11183;SDS011;5648;43.628;22.684;2022-07-24T14:56:17;9.68;;;6.53;;
11183;SDS011;5648;43.628;22.684;2022-07-24T14:58:42;7.03;;;6.00;;
11183;SDS011;5648;43.628;22.684;2022-07-24T15:01:08;8.77;;;5.00;;
11183;SDS011;5648;43.628;22.684;2022-07-24T15:03:33;8.40;;;5.93;;
11183;SDS011;5648;43.628;22.684;2022-07-24T15:05:58;6.47;;;4.95;;
11183;SDS011;5648;43.628;22.684;2022-07-24T15:08:24;6.00;;;5.50;;
11183;SDS011;5648;43.628;22.684;2022-07-24T15:10:49;8.30;;;5.80;;
11183;SDS011;5648;43.628;22.684;2022-07-24T15:13:15;7.60;;;5.40;;
11183;SDS011;5648;43.628;22.684;2022-07-24T15:15:40;7.75;;;5.38;;
11183;SDS011;5648;43.628;22.684;2022-07-24T15:18:06;5.63;;;5.03;;
11183;SDS011;5648;43.628;22.684;2022-07-24T15:20:31;5.70;;;5.03;;
11183;SDS011;5648;43.628;22.684;2022-07-24T15:22:57;6.07;;;4.90;;
11183;SDS011;5648;43.628;22.684;2022-07-24T15:25:22;6.05;;;4.88;;
11183;SDS011;5648;43.628;22.684;2022-07-24T15:27:49;5.85;;;5.07;;
11183;SDS011;5648;43.628;22.684;2022-07-24T15:30:16;7.97;;;4.93;;
11183;SDS011;5648;43.628;22.684;2022-07-24T15:32:43;8.77;;;5.13;;
11183;SDS011;5648;43.628;22.684;2022-07-24T15:35:09;9.55;;;5.07;;
11183;SDS011;5648;43.628;22.684;2022-07-24T15:37:34;5.30;;;4.80;;
11183;SDS011;5648;43.628;22.684;2022-07-24T15:40:00;5.20;;;4.32;;
11183;SDS011;5648;43.628;22.684;2022-07-24T15:42:26;6.50;;;4.03;;
11183;SDS011;5648;43.628;22.684;2022-07-24T15:44:52;6.78;;;5.03;;